Latest Weather Observations for South Johnstone

IDQ60801

Issued at 12:32 pm EST Saturday 20 December 2014 (issued every 30 minutes, with the page automatically refreshed every 10 minutes)

About weather observations | Map of weather stations | Latest weather observations for QLD | Other Formats
Station Details ID: 032037 Name: SOUTH JOHNSTONE EXP STN Lat: -17.61 Lon: 146.00 Height: 18.3 m
Data from the previous 72 hours. | See also: Recent months at South Johnstone
Date/Time
EST
Temp
°C
App
Temp
°C
Dew
Point
Rel
Hum
%
Delta-T
°C
Wind Press
QNH
hPa
Press
MSL
hPa
Rain
since 9 am
mm
Dir
 
Spd
km/h
Gust
km/h
Spd
kts
Gust
kts
20/12:30pm 31.6 32.8 19.9 50 7.7 ESE 13 20 7 11 1011.0 - 0.0
20/12:00pm 30.4 31.9 20.6 55 6.5 E 13 20 7 11 1011.5 1011.4 0.0
20/11:30am 30.7 32.9 20.5 54 6.8 SSE 9 17 5 9 1011.9 - 0.0
20/11:00am 30.4 33.2 20.8 56 6.4 E 7 15 4 8 1012.2 - 0.0
20/10:30am 29.9 32.6 20.7 57 6.1 E 7 15 4 8 1012.0 - 0.0
20/10:00am 30.1 33.1 22.0 62 5.5 SSE 9 17 5 9 1012.1 - 0.0
20/09:30am 29.0 32.6 22.0 66 4.7 SE 6 11 3 6 1012.1 - 0.0
20/09:00am 27.8 31.8 21.3 67 4.3 WSW 2 7 1 4 1012.1 1012.0 0.0
20/08:30am 26.0 30.7 22.0 78 2.7 CALM 0 0 0 0 1012.0 - 0.0
20/08:00am 25.0 29.2 21.8 82 2.1 W 2 7 1 4 1012.0 - 0.0
20/07:30am 24.7 28.9 21.8 84 1.9 WSW 2 7 1 4 1011.8 - 0.0
20/07:00am 24.3 29.4 22.7 91 1.1 CALM 0 0 0 0 1011.6 - 0.0
20/06:30am 24.2 28.9 22.6 91 1.1 WSW 2 7 1 4 1011.4 - 0.0
20/06:00am 24.1 29.1 22.5 91 1.1 CALM 0 0 0 0 1011.1 1011.0 0.0
20/05:30am 24.2 28.3 22.3 89 1.3 W 4 7 2 4 1010.6 - 0.0
20/05:00am 24.2 28.0 22.4 90 1.2 W 6 7 3 4 1010.4 - 0.0
20/04:30am 24.1 28.2 22.3 90 1.2 WSW 4 9 2 5 1010.4 - 0.0
20/04:00am 24.3 28.2 22.5 90 1.2 WSW 6 11 3 6 1010.4 - 0.0
20/03:30am 24.3 28.5 22.4 89 1.3 W 4 7 2 4 1010.3 - 0.0
20/03:00am 24.4 28.1 22.3 88 1.4 WNW 6 7 3 4 1010.5 1010.4 0.0
20/02:30am 24.2 27.9 22.3 89 1.3 W 6 9 3 5 1010.7 - 0.0
20/02:00am 24.4 28.1 22.3 88 1.4 W 6 9 3 5 1010.8 - 0.0
20/01:30am 24.6 27.6 21.9 85 1.8 SW 9 11 5 6 1011.0 - 0.0
20/01:00am 24.6 29.1 22.2 86 1.6 WSW 2 7 1 4 1011.5 - 0.0
20/12:30am 24.6 27.7 22.2 86 1.6 WSW 9 13 5 7 1011.8 - 0.0
20/12:00am 24.8 28.9 22.3 86 1.7 WSW 4 7 2 4 1012.0 1011.9 0.0
 
Date/Time
EST
Temp
°C
App
Temp
°C
Dew
Point
Rel
Hum
%
Delta-T
°C
Wind Press
QNH
hPa
Press
MSL
hPa
Rain
since 9 am
mm
Dir
 
Spd
km/h
Gust
km/h
Spd
kts
Gust
kts
19/11:30pm 25.3 28.2 21.7 80 2.4 WSW 9 11 5 6 1012.4 - 0.0
19/11:00pm 24.9 28.4 21.9 83 2.0 WSW 6 9 3 5 1012.7 - 0.0
19/10:30pm 24.8 29.6 22.1 85 1.8 CALM 0 0 0 0 1012.6 - 0.0
19/10:00pm 24.9 29.3 22.1 84 1.9 SW 2 7 1 4 1012.4 - 0.0
19/09:30pm 25.2 30.0 22.2 83 2.0 CALM 0 0 0 0 1012.3 - 0.0
19/09:00pm 25.1 29.8 22.0 83 2.1 CALM 0 0 0 0 1012.0 1011.9 0.0
19/08:30pm 26.3 29.3 21.2 73 3.4 SSE 7 9 4 5 1011.5 - 0.0
19/08:00pm 26.0 29.0 21.2 75 3.2 SE 7 9 4 5 1011.0 - 0.0
19/07:30pm 26.3 29.9 21.3 74 3.3 SE 4 7 2 4 1010.7 - 0.0
19/07:00pm 26.5 29.7 21.2 72 3.5 ESE 6 7 3 4 1010.3 - 0.0
19/06:30pm 27.3 30.4 21.1 69 4.1 ENE 6 9 3 5 1010.0 - 0.0
19/06:00pm 28.2 30.1 20.6 63 5.0 ENE 11 17 6 9 1009.5 1009.4 0.0
19/05:30pm 28.9 30.7 20.4 60 5.6 ENE 11 17 6 9 1009.2 - 0.0
19/05:00pm 29.5 31.1 20.8 59 5.8 NE 13 22 7 12 1008.9 - 0.0
19/04:30pm 29.8 31.2 20.3 56 6.3 ENE 13 22 7 12 1008.8 - 0.0
19/04:00pm 30.1 30.5 19.9 54 6.7 NE 17 22 9 12 1008.7 - 0.0
19/03:30pm 30.5 30.8 19.7 52 7.1 ENE 17 22 9 12 1008.8 - 0.0
19/03:00pm 30.7 31.2 20.1 53 7.0 NE 17 26 9 14 1008.9 1008.8 0.0
19/02:30pm 31.4 32.8 21.1 54 6.9 NE 15 24 8 13 1009.2 - 0.0
19/02:00pm 31.2 32.3 20.5 53 7.1 NE 15 24 8 13 1009.5 - 0.0
19/01:30pm 31.5 33.2 20.9 53 7.1 NE 13 19 7 10 1009.9 - 0.0
19/01:00pm 31.5 33.7 21.2 54 6.9 NE 11 20 6 11 1010.4 - 0.0
19/12:30pm 30.9 32.3 20.3 53 7.0 NE 13 20 7 11 1010.8 - 0.0
19/12:00pm 31.3 34.2 21.7 56 6.5 NNE 9 15 5 8 1011.1 1011.0 0.0
19/11:30am 31.5 35.4 20.4 51 7.4 CALM 0 6 0 3 1011.6 - 0.0
19/11:00am 31.1 34.1 20.9 54 6.8 N 6 11 3 6 1011.9 - 0.0
19/10:30am 30.8 33.4 20.0 52 7.1 S 6 11 3 6 1012.3 - 0.0
19/10:00am 29.7 32.3 20.1 56 6.3 NNE 6 13 3 7 1012.6 - 0.0
19/09:30am 29.1 31.2 19.4 55 6.3 NNE 7 11 4 6 1012.6 - 0.0
19/09:00am 28.6 31.6 20.9 63 5.1 NE 6 13 3 7 1012.7 1012.6 0.0
19/08:30am 28.5 33.0 22.3 69 4.2 NW 2 6 1 3 1012.8 - 0.0
19/08:00am 27.2 32.2 22.5 75 3.2 CALM 0 0 0 0 1012.7 - 0.0
19/07:30am 26.2 30.9 21.9 77 2.9 CALM 0 0 0 0 1012.7 - 0.0
19/07:00am 23.2 27.2 21.4 90 1.2 W 2 6 1 3 1012.6 - 0.0
19/06:30am 21.9 23.9 20.7 93 0.8 WSW 11 13 6 7 1012.3 - 0.0
19/06:00am 21.4 23.2 20.3 93 0.7 WSW 11 13 6 7 1011.8 1011.7 0.0
19/05:30am 21.3 23.9 20.4 95 0.6 WNW 7 9 4 5 1010.8 - 0.0
19/05:00am 21.2 23.4 20.4 95 0.5 WSW 9 13 5 7 1010.6 - 0.0
19/04:30am 21.4 24.3 20.6 95 0.5 NW 6 9 3 5 1010.1 - 0.0
19/04:00am 21.4 25.0 20.5 95 0.6 W 2 7 1 4 1010.0 - 0.0
19/03:30am 21.7 25.8 20.8 95 0.6 CALM 0 0 0 0 1010.3 - 0.0
19/03:00am 21.9 25.2 20.8 93 0.7 WNW 4 7 2 4 1010.8 1010.7 0.0
19/02:30am 22.0 26.0 20.6 92 0.9 CALM 0 0 0 0 1011.0 - 0.0
19/02:00am 22.3 26.0 20.8 91 1.0 W 2 6 1 3 1011.4 - 0.0
19/01:30am 22.3 26.5 20.9 92 0.9 CALM 0 0 0 0 1011.7 - 0.0
19/01:00am 22.3 26.1 20.9 92 0.9 W 2 6 1 3 1012.1 - 0.0
19/12:30am 22.7 26.4 20.7 88 1.3 W 2 7 1 4 1012.4 - 0.0
19/12:00am 22.8 24.8 20.8 88 1.3 WSW 11 13 6 7 1012.7 1012.6 0.0
 
Date/Time
EST
Temp
°C
App
Temp
°C
Dew
Point
Rel
Hum
%
Delta-T
°C
Wind Press
QNH
hPa
Press
MSL
hPa
Rain
since 9 am
mm
Dir
 
Spd
km/h
Gust
km/h
Spd
kts
Gust
kts
18/11:30pm 22.6 25.4 20.9 90 1.1 WSW 7 13 4 7 1012.6 - 0.0
18/11:00pm 22.7 24.8 20.9 89 1.2 WSW 11 15 6 8 1012.8 - 0.0
18/10:30pm 22.9 25.5 21.2 90 1.1 WSW 9 15 5 8 1012.4 - 0.0
18/10:00pm 23.1 24.9 21.1 88 1.3 WSW 13 15 7 8 1012.2 - 0.0
18/09:30pm 23.3 26.9 21.2 88 1.4 W 4 11 2 6 1011.6 - 0.0
18/09:00pm 24.2 27.6 21.6 85 1.7 WSW 6 9 3 5 1011.6 1011.5 0.0
18/08:30pm 24.5 27.0 21.0 81 2.3 WSW 9 13 5 7 1011.4 - 0.0
18/08:00pm 25.1 29.5 21.3 79 2.5 CALM 0 0 0 0 1011.2 - 0.0
18/07:30pm 25.6 29.9 21.2 76 2.9 CALM 0 0 0 0 1010.8 - 0.0
18/07:00pm 26.5 30.2 20.7 70 3.8 ENE 2 7 1 4 1010.6 - 0.0
18/06:30pm 27.3 29.1 20.3 65 4.6 NE 11 15 6 8 1009.8 - 0.0
18/06:00pm 28.1 29.3 19.8 60 5.4 ENE 13 19 7 10 1009.5 1009.4 0.0
18/05:30pm 28.7 29.1 19.1 56 6.2 NE 15 22 8 12 1009.0 - 0.0
18/05:00pm 29.4 30.0 18.7 52 6.9 NE 13 20 7 11 1008.7 - 0.0
18/04:30pm 29.9 30.3 19.0 52 7.1 NE 15 22 8 12 1008.6 - 0.0
18/04:00pm 29.8 29.9 19.2 53 6.9 NE 17 24 9 13 1008.7 - 0.0
18/03:30pm 30.3 30.7 18.9 50 7.4 NNE 15 24 8 13 1009.0 - 0.0
18/03:00pm 30.4 30.7 19.6 52 7.1 NE 17 22 9 12 1009.5 1009.4 0.0
18/02:30pm 30.6 30.0 18.5 48 7.8 ENE 19 28 10 15 1010.0 - 0.0
18/02:00pm 30.8 29.8 17.5 45 8.5 ENE 19 28 10 15 1010.1 - 0.0
18/01:30pm 31.8 31.7 18.7 45 8.5 ENE 17 28 9 15 1010.2 - 0.0
18/01:00pm 30.8 30.0 18.0 46 8.2 NE 19 26 10 14 1010.6 - 0.0
18/12:30pm 31.7 31.2 17.8 43 8.9 ENE 17 28 9 15 1010.8 - 0.0
18/12:00pm 31.0 31.0 18.1 46 8.3 ENE 15 22 8 12 1011.1 1011.0 0.0
18/11:30am 31.0 31.2 18.5 47 8.1 NE 15 26 8 14 1011.4 - 0.0
18/11:00am 30.9 33.1 19.6 51 7.4 N 7 19 4 10 1011.8 - 0.0
18/10:30am 30.7 32.2 19.0 49 7.6 ENE 9 17 5 9 1012.0 - 0.0
18/10:00am 29.5 32.8 20.8 59 5.8 NNE 4 11 2 6 1012.1 - 0.0
18/09:30am 29.7 32.3 20.5 57 6.1 NE 7 13 4 7 1012.4 - 0.0
18/09:00am 29.0 31.8 20.4 59 5.7 N 6 17 3 9 1012.6 1012.5 0.0
18/08:30am 28.2 31.9 21.5 67 4.5 NNE 4 7 2 4 1012.5 - 0.0
18/08:00am 27.0 31.3 21.9 73 3.4 WNW 2 7 1 4 1012.3 - 0.0
18/07:30am 25.4 29.8 22.1 82 2.2 WNW 2 7 1 4 1012.3 - 0.0
18/07:00am 23.9 27.8 21.9 88 1.3 WNW 4 7 2 4 1012.1 - 0.0
18/06:30am 22.6 25.9 21.5 93 0.7 SW 6 9 3 5 1011.8 - 0.0
18/06:00am 21.8 25.7 21.2 96 0.4 W 2 7 1 4 1011.4 1011.3 0.0
18/05:30am 21.8 25.0 21.3 97 0.3 WNW 6 9 3 5 1010.8 - 0.0
18/05:00am 21.8 26.2 21.3 97 0.3 CALM 0 4 0 2 1010.4 - 0.0
18/04:30am 21.9 26.3 21.3 96 0.4 CALM 0 0 0 0 1010.1 - 0.0
18/04:00am 22.0 25.2 21.2 95 0.5 WNW 6 7 3 4 1010.0 - 0.0
18/03:30am 22.2 25.6 21.6 96 0.4 W 6 7 3 4 1009.6 - 0.0
18/03:00am 22.2 26.0 21.6 96 0.4 W 4 11 2 6 1009.5 1009.4 0.0
18/02:30am 22.1 25.7 21.3 95 0.5 WSW 4 11 2 6 1009.5 - 0.0
18/02:00am 22.6 26.0 21.7 95 0.6 W 6 9 3 5 1009.7 - 0.0
18/01:30am 22.5 26.3 21.6 95 0.6 W 4 9 2 5 1009.7 - 0.0
18/01:00am 23.0 27.8 22.1 95 0.6 CALM 0 0 0 0 1009.7 - 0.0
18/12:30am 23.1 27.4 21.9 93 0.8 W 2 6 1 3 1010.1 - 0.0
18/12:00am 23.6 28.0 22.1 91 1.0 W 2 6 1 3 1010.5 1010.4 0.0
 
Date/Time
EST
Temp
°C
App
Temp
°C
Dew
Point
Rel
Hum
%
Delta-T
°C
Wind Press
QNH
hPa
Press
MSL
hPa
Rain
since 9 am
mm
Dir
 
Spd
km/h
Gust
km/h
Spd
kts
Gust
kts
17/11:30pm 23.6 27.2 22.1 91 1.0 W 6 9 3 5 1011.0 - 0.0
17/11:00pm 23.5 27.1 22.0 91 1.0 W 6 9 3 5 1011.0 - 0.0
17/10:30pm 23.6 26.9 21.8 90 1.2 W 7 9 4 5 1011.0 - 0.0
17/10:00pm 23.7 26.6 21.7 88 1.3 WSW 9 15 5 8 1011.0 - 0.0
17/09:30pm 23.7 28.4 22.0 90 1.1 CALM 0 6 0 3 1010.2 - 0.0
17/09:00pm 24.5 28.0 21.8 85 1.8 WSW 6 7 3 4 1009.8 1009.7 0.0
17/08:30pm 25.0 29.6 21.8 82 2.1 CALM 0 4 0 2 1009.5 - 0.0
17/08:00pm 25.6 30.1 21.5 78 2.7 CALM 0 0 0 0 1009.2 - 0.0
17/07:30pm 26.0 30.6 21.7 77 2.9 CALM 0 0 0 0 1008.8 - 0.0
17/07:00pm 26.9 30.1 21.2 71 3.8 NNE 6 9 3 5 1008.5 - 0.0
17/06:30pm 27.6 29.8 21.1 67 4.3 NNE 11 19 6 10 1008.2 - 0.0
17/06:00pm 28.4 30.3 21.4 66 4.7 NE 13 19 7 10 1008.0 1007.9 0.0
17/05:30pm 29.0 30.9 22.0 66 4.7 NE 15 22 8 12 1007.8 - 0.0
17/05:00pm 29.4 31.1 21.7 63 5.2 NE 15 24 8 13 1007.5 - 0.0
17/04:30pm 29.9 31.1 21.4 60 5.7 NE 17 24 9 13 1007.4 - 0.0
17/04:00pm 30.4 32.8 22.3 62 5.5 NNE 13 26 7 14 1007.6 - 0.0
17/03:30pm 30.8 32.7 22.0 59 6.0 NE 15 22 8 12 1007.6 - 0.0
17/03:00pm 31.0 32.7 22.3 60 5.9 NE 17 24 9 13 1007.9 1007.8 0.0
17/02:30pm 31.2 32.8 22.1 58 6.2 NE 17 32 9 17 1008.0 - 0.0
17/02:00pm 30.9 32.2 21.7 58 6.2 NE 17 24 9 13 1008.3 - 0.0
17/01:30pm 31.5 32.9 21.8 56 6.6 NE 17 24 9 13 1008.5 - 0.0
17/01:00pm 31.5 33.1 22.1 57 6.4 NE 17 22 9 12 1008.8 - 0.0

Other Formats:

Comma delimited format used in spreadsheet applications
http://www.bom.gov.au/fwo/IDQ60801/IDQ60801.95292.axf

JavaScript Object Notation format (JSON) in row-major order
http://www.bom.gov.au/fwo/IDQ60801/IDQ60801.95292.json